Time;durP1;ratioP1;P1;durP2;ratioP2;P2;SDS_P1;SDS_P2;PMS_P1;PMS_P2;Temp;Humidity;BMP_temperature;BMP_pressure;BME280_temperature;BME280_humidity;BME280_pressure;Samples;Min_cycle;Max_cycle;Signal;HPM_P1;HPM_P2
2024/03/30 00:00:14;;;;;;;81.93;16.77;;;18.00;21.30;;;;;;5070429;28;20442;-70
2024/03/30 00:02:40;;;;;;;71.43;12.50;;;18.00;20.30;;;;;;5069350;28;20443;-71
2024/03/30 00:05:08;;;;;;;68.00;15.57;;;17.90;22.30;;;;;;5069968;28;20493;-71
2024/03/30 00:07:40;;;;;;;67.67;13.20;;;17.80;22.40;;;;;;5056731;28;20462;-71
2024/03/30 00:10:08;;;;;;;70.73;14.00;;;17.80;20.50;;;;;;5052664;28;20836;-74
2024/03/30 00:12:35;;;;;;;66.00;13.43;;;18.00;20.30;;;;;;5053502;28;20446;-74
2024/03/30 00:15:03;;;;;;;70.07;15.37;;;17.90;20.70;;;;;;5051909;28;20480;-73
2024/03/30 00:17:30;;;;;;;83.17;15.73;;;17.80;21.40;;;;;;5052161;28;20444;-74
2024/03/30 00:19:58;;;;;;;68.70;12.60;;;17.80;20.90;;;;;;5052344;28;20447;-73
2024/03/30 00:22:25;;;;;;;66.13;14.00;;;17.80;20.60;;;;;;5052630;28;20474;-73
2024/03/30 00:24:52;;;;;;;63.90;15.60;;;17.80;20.90;;;;;;5052400;28;20443;-72
2024/03/30 00:27:18;;;;;;;67.57;15.80;;;17.70;21.70;;;;;;5065218;28;20515;-72
2024/03/30 00:29:47;;;;;;;91.87;15.80;;;17.60;22.00;;;;;;5058728;28;20456;-72
2024/03/30 00:32:15;;;;;;;80.00;14.10;;;17.50;22.90;;;;;;5056133;28;20922;-73
2024/03/30 00:34:41;;;;;;;56.00;14.03;;;17.50;22.40;;;;;;5055795;28;20665;-69
2024/03/30 00:37:07;;;;;;;58.33;13.00;;;17.50;21.90;;;;;;5051811;28;20444;-73
2024/03/30 00:39:34;;;;;;;79.10;12.43;;;17.50;21.30;;;;;;5051885;28;20843;-72
2024/03/30 00:42:00;;;;;;;50.50;12.00;;;17.50;21.30;;;;;;5051931;28;20581;-72
2024/03/30 00:44:27;;;;;;;71.37;14.77;;;17.40;21.50;;;;;;5052231;28;20479;-72
2024/03/30 00:46:53;;;;;;;90.60;13.30;;;17.40;21.80;;;;;;5055384;28;20462;-72
2024/03/30 00:49:21;;;;;;;66.40;12.97;;;17.40;22.10;;;;;;5066429;28;20443;-72
2024/03/30 00:51:47;;;;;;;73.60;13.57;;;17.40;22.10;;;;;;5052162;28;20474;-70
2024/03/30 00:54:14;;;;;;;78.53;17.00;;;17.40;22.20;;;;;;5061685;28;20521;-71
2024/03/30 00:56:40;;;;;;;65.40;14.83;;;17.20;22.60;;;;;;5072122;28;20912;-71
2024/03/30 00:59:07;;;;;;;57.87;12.73;;;17.20;23.10;;;;;;5072604;28;20435;-72
2024/03/30 01:01:33;;;;;;;82.20;15.40;;;17.10;24.20;;;;;;5071844;28;20456;-71
2024/03/30 01:04:00;;;;;;;75.70;13.33;;;16.90;25.90;;;;;;5072323;28;20496;-71
2024/03/30 01:06:27;;;;;;;76.90;16.13;;;16.70;25.60;;;;;;5072652;28;20499;-71
2024/03/30 01:08:54;;;;;;;68.63;14.27;;;16.60;25.60;;;;;;5072425;28;20525;-71
2024/03/30 01:11:21;;;;;;;71.83;13.73;;;16.50;27.00;;;;;;5071909;28;20520;-70
2024/03/30 01:13:49;;;;;;;65.60;15.07;;;16.30;28.80;;;;;;5074858;28;20467;-71
2024/03/30 01:16:16;;;;;;;64.80;15.00;;;16.10;28.80;;;;;;5075838;28;20436;-71
2024/03/30 01:18:43;;;;;;;62.53;14.20;;;16.00;28.90;;;;;;5075968;28;20519;-71
2024/03/30 01:21:10;;;;;;;65.90;13.03;;;15.80;29.30;;;;;;5075643;28;20468;-71
2024/03/30 01:23:39;;;;;;;59.20;13.13;;;15.60;29.80;;;;;;5075638;28;20759;-70
2024/03/30 01:26:09;;;;;;;60.57;14.03;;;15.50;29.80;;;;;;5075527;28;20456;-69
2024/03/30 01:28:37;;;;;;;69.37;15.20;;;15.50;29.50;;;;;;5075525;28;20439;-70
2024/03/30 01:31:04;;;;;;;51.40;15.10;;;15.40;29.20;;;;;;5075136;28;20459;-71
2024/03/30 01:33:32;;;;;;;62.20;11.90;;;15.30;29.60;;;;;;5075629;28;20444;-69
2024/03/30 01:35:58;;;;;;;62.90;13.47;;;15.30;29.70;;;;;;5075653;28;20428;-68
2024/03/30 01:38:24;;;;;;;64.47;14.33;;;15.30;31.10;;;;;;5075615;28;20556;-70
2024/03/30 01:40:52;;;;;;;71.80;14.30;;;15.30;30.60;;;;;;5074833;28;20467;-69
2024/03/30 01:43:19;;;;;;;44.40;13.90;;;15.20;31.30;;;;;;5075409;28;20443;-74
2024/03/30 01:45:45;;;;;;;66.37;14.47;;;15.10;32.40;;;;;;5072130;28;20468;-72
2024/03/30 01:48:12;;;;;;;71.67;13.40;;;15.00;32.70;;;;;;5040978;28;20463;-73
2024/03/30 01:50:41;;;;;;;79.13;13.97;;;14.90;32.00;;;;;;5069968;28;20428;-72
2024/03/30 01:53:10;;;;;;;74.20;14.00;;;14.80;32.10;;;;;;5065671;28;20433;-72
2024/03/30 01:55:38;;;;;;;64.20;13.90;;;14.70;33.70;;;;;;5073831;28;20553;-73
2024/03/30 01:58:07;;;;;;;54.97;13.77;;;14.50;34.50;;;;;;5072688;28;20790;-72
2024/03/30 02:00:33;;;;;;;53.53;12.10;;;14.30;35.20;;;;;;5074099;28;20482;-73
2024/03/30 02:03:01;;;;;;;47.63;13.43;;;14.20;35.20;;;;;;5062306;28;20437;-74
2024/03/30 02:05:28;;;;;;;57.20;12.77;;;14.20;35.00;;;;;;5054642;28;20439;-74
2024/03/30 02:08:01;;;;;;;62.17;11.90;;;14.20;34.90;;;;;;5054322;28;20467;-74
2024/03/30 02:10:27;;;;;;;63.47;11.93;;;14.20;34.80;;;;;;5068277;28;20448;-72
2024/03/30 02:12:55;;;;;;;40.57;12.43;;;14.10;35.00;;;;;;5074137;28;20501;-71
2024/03/30 02:15:23;;;;;;;65.17;12.87;;;14.10;34.60;;;;;;5073744;28;21131;-71
2024/03/30 02:17:50;;;;;;;54.83;9.97;;;14.10;34.90;;;;;;5073898;28;20436;-71
2024/03/30 02:20:16;;;;;;;47.17;10.90;;;14.00;35.20;;;;;;5074018;28;20428;-71
2024/03/30 02:22:50;;;;;;;59.33;13.07;;;14.00;35.00;;;;;;5073336;28;20527;-71
2024/03/30 02:25:19;;;;;;;61.37;10.87;;;14.00;34.90;;;;;;5073497;28;20979;-71
2024/03/30 02:27:47;;;;;;;61.93;13.87;;;14.00;33.60;;;;;;5074965;28;20439;-71
2024/03/30 02:30:21;;;;;;;58.83;13.27;;;14.10;33.20;;;;;;5072839;28;20424;-72
2024/03/30 02:32:48;;;;;;;56.90;11.13;;;14.20;33.00;;;;;;5073803;28;20750;-72
2024/03/30 02:35:14;;;;;;;51.33;11.50;;;14.30;32.70;;;;;;5073746;28;20519;-72
2024/03/30 02:37:41;;;;;;;64.03;12.43;;;14.30;32.50;;;;;;5073743;28;20440;-73
2024/03/30 02:40:08;;;;;;;53.80;14.23;;;14.30;32.50;;;;;;5072503;28;20432;-73
2024/03/30 02:42:36;;;;;;;56.10;13.00;;;14.20;33.30;;;;;;5073298;28;20455;-71
2024/03/30 02:45:02;;;;;;;50.93;11.40;;;14.10;33.50;;;;;;5073081;28;20436;-71
2024/03/30 02:47:29;;;;;;;62.07;12.17;;;14.20;33.80;;;;;;5073605;28;20529;-71
2024/03/30 02:49:55;;;;;;;48.57;10.27;;;14.30;33.70;;;;;;5071924;28;20485;-72
2024/03/30 02:52:22;;;;;;;51.83;11.70;;;14.30;34.00;;;;;;5072985;28;20436;-72
2024/03/30 02:54:48;;;;;;;54.60;11.63;;;14.20;34.30;;;;;;5072858;28;20511;-71
2024/03/30 02:57:15;;;;;;;52.50;11.37;;;14.10;34.80;;;;;;5073144;28;20468;-72
2024/03/30 02:59:42;;;;;;;41.27;13.87;;;14.00;35.10;;;;;;5073228;28;20489;-71
2024/03/30 03:02:09;;;;;;;59.20;11.80;;;13.90;35.50;;;;;;5053395;28;20512;-71
2024/03/30 03:04:35;;;;;;;57.80;11.40;;;13.80;35.80;;;;;;5053787;28;20464;-71
2024/03/30 03:07:03;;;;;;;73.00;12.10;;;13.60;35.50;;;;;;5069080;28;20895;-71
2024/03/30 03:09:29;;;;;;;55.87;9.93;;;13.50;35.80;;;;;;5073379;28;20448;-71
2024/03/30 03:11:56;;;;;;;50.83;12.60;;;13.50;36.20;;;;;;5073027;28;20440;-71
2024/03/30 03:14:22;;;;;;;61.47;10.77;;;13.30;36.30;;;;;;5073408;28;20483;-71
2024/03/30 03:16:50;;;;;;;44.70;10.13;;;13.40;36.50;;;;;;5061799;28;20433;-71
2024/03/30 03:19:16;;;;;;;52.53;13.57;;;13.40;36.40;;;;;;5057171;28;20886;-71
2024/03/30 03:21:43;;;;;;;49.63;11.07;;;13.50;36.30;;;;;;5073083;28;20541;-71
2024/03/30 03:24:09;;;;;;;53.10;11.63;;;13.50;36.40;;;;;;5062500;28;20515;-71
2024/03/30 03:26:36;;;;;;;58.13;11.83;;;13.50;36.80;;;;;;5072360;28;20843;-71
2024/03/30 03:29:02;;;;;;;47.80;10.70;;;13.50;36.90;;;;;;5072423;28;20436;-71
2024/03/30 03:31:29;;;;;;;53.77;11.50;;;13.40;37.20;;;;;;5073022;28;20455;-71
2024/03/30 03:33:56;;;;;;;47.77;10.30;;;13.30;37.90;;;;;;5072478;28;20432;-71
2024/03/30 03:36:23;;;;;;;49.17;11.73;;;13.20;38.30;;;;;;5072636;28;20515;-71
2024/03/30 03:38:49;;;;;;;49.17;11.07;;;13.20;37.90;;;;;;5072627;28;20516;-71
2024/03/30 03:41:16;;;;;;;45.47;10.73;;;13.10;38.50;;;;;;5072881;28;20472;-71
2024/03/30 03:43:43;;;;;;;65.47;10.40;;;12.90;38.50;;;;;;5073420;28;20432;-74
2024/03/30 03:46:10;;;;;;;49.20;10.82;;;12.70;39.80;;;;;;5061388;28;20826;-73
2024/03/30 03:48:36;;;;;;;61.37;12.10;;;12.50;40.00;;;;;;5072624;28;20245;-73
2024/03/30 03:51:05;;;;;;;47.67;11.40;;;12.40;40.40;;;;;;5070179;28;20521;-73
2024/03/30 03:53:31;;;;;;;54.53;9.23;;;12.30;40.90;;;;;;5072709;28;20528;-73
2024/03/30 03:55:57;;;;;;;41.43;7.87;;;12.30;40.90;;;;;;5069292;28;20866;-73
2024/03/30 03:58:23;;;;;;;54.83;10.27;;;12.20;41.40;;;;;;5072282;28;20505;-73
2024/03/30 04:00:50;;;;;;;46.20;9.90;;;12.30;41.60;;;;;;5072166;28;20472;-73
2024/03/30 04:03:17;;;;;;;53.53;11.13;;;12.40;41.40;;;;;;5072187;28;20537;-73
2024/03/30 04:05:43;;;;;;;51.93;10.80;;;12.40;41.50;;;;;;5072399;28;20428;-74
2024/03/30 04:08:11;;;;;;;62.67;12.43;;;12.30;41.70;;;;;;5069047;28;20429;-73
2024/03/30 04:10:37;;;;;;;57.28;12.30;;;12.20;41.90;;;;;;5052475;28;20469;-73
2024/03/30 04:13:04;;;;;;;54.40;10.07;;;12.00;41.80;;;;;;5052334;28;20283;-74
2024/03/30 04:15:32;;;;;;;53.75;9.63;;;11.80;42.30;;;;;;5065586;28;20493;-74
2024/03/30 04:17:59;;;;;;;38.42;12.10;;;11.70;42.70;;;;;;5070317;28;20193;-74
2024/03/30 04:20:25;;;;;;;46.97;10.75;;;11.70;43.40;;;;;;5052174;28;20222;-74
2024/03/30 04:22:52;;;;;;;40.35;10.95;;;11.80;43.80;;;;;;5060653;28;20939;-74
2024/03/30 04:25:20;;;;;;;50.38;11.32;;;11.90;43.20;;;;;;5071242;28;20239;-74
2024/03/30 04:27:46;;;;;;;48.03;14.00;;;11.80;42.90;;;;;;5072167;28;20288;-74
2024/03/30 04:30:13;;;;;;;56.15;11.90;;;11.70;43.10;;;;;;5072145;28;20255;-74
2024/03/30 04:32:40;;;;;;;37.05;10.25;;;11.50;43.30;;;;;;5071888;28;20704;-74
2024/03/30 04:35:06;;;;;;;37.08;9.82;;;11.40;43.50;;;;;;5072096;28;20270;-74
2024/03/30 04:37:33;;;;;;;49.40;8.82;;;11.10;43.50;;;;;;5071306;28;20192;-74
2024/03/30 04:40:00;;;;;;;35.88;9.52;;;10.90;43.90;;;;;;5071544;28;20647;-74
2024/03/30 04:42:28;;;;;;;43.58;9.63;;;10.70;44.60;;;;;;5071940;28;20202;-74
2024/03/30 04:44:54;;;;;;;40.47;9.13;;;10.60;44.90;;;;;;5071744;28;20240;-74
2024/03/30 04:47:21;;;;;;;36.73;8.90;;;10.50;45.10;;;;;;5072202;28;20248;-74
2024/03/30 04:49:47;;;;;;;53.35;10.98;;;10.40;45.40;;;;;;5074804;28;20436;-74
2024/03/30 04:52:14;;;;;;;47.87;8.60;;;10.30;46.00;;;;;;5075827;28;20729;-73
2024/03/30 04:54:40;;;;;;;50.95;10.95;;;10.30;46.30;;;;;;5075574;28;21003;-74
2024/03/30 04:57:07;;;;;;;44.50;12.37;;;10.30;46.40;;;;;;5071589;28;20251;-73
2024/03/30 04:59:34;;;;;;;50.40;9.73;;;10.40;46.60;;;;;;5072322;28;20436;-74
2024/03/30 05:02:02;;;;;;;51.90;9.35;;;10.50;46.60;;;;;;5074996;28;20276;-73
2024/03/30 05:04:28;;;;;;;68.60;7.70;;;10.50;46.80;;;;;;5075919;28;20201;-72
2024/03/30 05:06:55;;;;;;;37.53;7.97;;;10.60;46.30;;;;;;5075392;28;20196;-72
2024/03/30 05:09:23;;;;;;;39.38;7.95;;;10.50;46.00;;;;;;5075590;28;20929;-72
2024/03/30 05:11:49;;;;;;;27.08;8.10;;;10.50;46.70;;;;;;5066018;28;20218;-73
2024/03/30 05:14:16;;;;;;;32.37;10.77;;;10.60;46.50;;;;;;5055893;28;20279;-73
2024/03/30 05:16:43;;;;;;;43.60;8.15;;;10.50;46.40;;;;;;5064396;28;20513;-75
2024/03/30 05:20:43;;;;;;;40.22;9.13;;;10.30;47.00;;;;;;5075281;28;20200;-73
2024/03/30 05:21:56;;;;;;;37.28;7.80;;;10.20;47.50;;;;;;5074477;28;20188;-73
2024/03/30 05:24:23;;;;;;;52.23;11.47;;;10.10;47.80;;;;;;5074490;28;20707;-74
2024/03/30 05:26:49;;;;;;;50.15;10.90;;;10.10;48.20;;;;;;5074990;28;20982;-74
2024/03/30 05:29:16;;;;;;;34.40;10.67;;;10.30;48.50;;;;;;5063172;28;20225;-75
2024/03/30 05:31:43;;;;;;;59.67;12.77;;;10.40;48.60;;;;;;5055111;28;20475;-74
2024/03/30 05:34:10;;;;;;;49.17;10.50;;;10.50;48.40;;;;;;5054720;28;20190;-74
2024/03/30 05:36:36;;;;;;;52.47;12.88;;;10.60;48.20;;;;;;5062512;28;20225;-74
2024/03/30 05:39:03;;;;;;;47.92;12.38;;;10.50;48.60;;;;;;5057589;28;20191;-75
2024/03/30 05:41:29;;;;;;;36.97;9.27;;;10.50;49.00;;;;;;5075207;28;20186;-75
2024/03/30 05:43:56;;;;;;;45.37;9.77;;;10.50;48.70;;;;;;5074618;28;20208;-73
2024/03/30 05:46:22;;;;;;;44.53;10.23;;;10.60;48.60;;;;;;5074050;28;20502;-73
2024/03/30 05:48:50;;;;;;;43.13;8.98;;;10.60;49.30;;;;;;5074353;28;20236;-73
2024/03/30 05:51:16;;;;;;;52.58;10.15;;;10.80;49.00;;;;;;5074688;28;20190;-73
2024/03/30 05:53:46;;;;;;;62.67;12.70;;;10.80;48.60;;;;;;5075027;28;20598;-73
2024/03/30 05:56:12;;;;;;;40.78;10.50;;;10.70;48.70;;;;;;5074318;28;20501;-73
2024/03/30 05:58:39;;;;;;;38.00;11.38;;;10.80;49.00;;;;;;5058138;28;20191;-73
2024/03/30 06:01:05;;;;;;;36.53;9.73;;;10.80;48.30;;;;;;5053502;28;20640;-73
2024/03/30 06:03:32;;;;;;;25.80;8.07;;;10.70;48.70;;;;;;5068757;28;20190;-73
2024/03/30 06:05:59;;;;;;;38.65;9.48;;;10.70;49.90;;;;;;5073362;28;20472;-74
2024/03/30 06:08:26;;;;;;;33.13;8.20;;;10.70;49.80;;;;;;5074530;28;20194;-74
2024/03/30 06:10:52;;;;;;;37.33;10.07;;;10.80;49.70;;;;;;5074022;28;20235;-74
2024/03/30 06:13:19;;;;;;;28.93;7.70;;;10.90;48.80;;;;;;5074677;28;20197;-75
2024/03/30 06:15:45;;;;;;;35.00;7.93;;;11.00;48.00;;;;;;5072858;28;20541;-74
2024/03/30 06:18:12;;;;;;;59.38;10.30;;;11.10;47.70;;;;;;5074390;28;20213;-75
2024/03/30 06:20:38;;;;;;;43.78;10.27;;;11.30;48.40;;;;;;5073702;28;20243;-75
2024/03/30 06:23:06;;;;;;;36.30;10.32;;;11.30;48.40;;;;;;5073332;28;20190;-75
2024/03/30 06:25:33;;;;;;;36.75;10.30;;;11.40;48.10;;;;;;5073789;28;20244;-75
2024/03/30 06:27:59;;;;;;;28.02;6.18;;;11.50;47.70;;;;;;5074066;28;20292;-75
2024/03/30 06:30:26;;;;;;;31.10;7.53;;;11.50;46.70;;;;;;5074571;28;20362;-74
2024/03/30 06:32:52;;;;;;;38.08;9.95;;;11.60;46.50;;;;;;5073183;28;20828;-73
2024/03/30 06:35:19;;;;;;;28.50;7.83;;;11.70;45.80;;;;;;5073709;28;20213;-75
2024/03/30 06:37:45;;;;;;;34.37;5.80;;;11.80;44.40;;;;;;5073845;28;20528;-75
2024/03/30 06:45:41;;;;;;;39.53;6.67;;;12.50;41.50;;;;;;5072445;28;20189;-74
2024/03/30 06:48:08;;;;;;;41.03;7.37;;;12.60;40.80;;;;;;5072218;28;20489;-75
2024/03/30 06:50:35;;;;;;;21.50;6.60;;;12.80;41.50;;;;;;5073018;28;20463;-75
2024/03/30 06:53:02;;;;;;;37.33;6.73;;;12.90;39.90;;;;;;5073416;28;20493;-75
2024/03/30 06:55:29;;;;;;;27.67;6.20;;;13.00;39.90;;;;;;5073371;28;20941;-75
2024/03/30 06:57:56;;;;;;;40.37;8.90;;;13.20;39.70;;;;;;5072915;28;20436;-75
2024/03/30 07:00:23;;;;;;;35.77;8.17;;;13.30;42.80;;;;;;5068201;28;20461;-75
2024/03/30 07:02:49;;;;;;;37.10;9.10;;;13.50;45.20;;;;;;5053121;28;20441;-75
2024/03/30 07:05:16;;;;;;;26.80;8.60;;;13.60;46.10;;;;;;5053269;28;20433;-75
2024/03/30 07:07:42;;;;;;;32.17;8.40;;;13.70;46.90;;;;;;5070340;28;20433;-75
2024/03/30 07:10:10;;;;;;;41.13;8.60;;;13.90;46.60;;;;;;5072222;28;20836;-75
2024/03/30 07:12:38;;;;;;;36.77;7.70;;;14.00;47.90;;;;;;5073003;28;20797;-75
2024/03/30 07:15:06;;;;;;;46.23;9.20;;;14.30;46.60;;;;;;5071921;28;20513;-74
2024/03/30 07:17:32;;;;;;;36.43;7.20;;;14.40;44.50;;;;;;5072560;28;20432;-73
2024/03/30 07:19:59;;;;;;;38.27;9.00;;;14.60;44.80;;;;;;5072540;28;20561;-73
2024/03/30 07:22:24;;;;;;;32.43;7.93;;;14.70;45.00;;;;;;5072819;28;20440;-73
2024/03/30 07:24:51;;;;;;;34.00;8.33;;;14.80;45.40;;;;;;5072527;28;20486;-73
2024/03/30 07:27:17;;;;;;;27.93;7.73;;;15.00;44.50;;;;;;5072425;28;20468;-73
2024/03/30 07:29:50;;;;;;;28.53;7.93;;;15.10;42.30;;;;;;5071060;28;20460;-73
2024/03/30 07:32:16;;;;;;;44.00;6.80;;;15.30;41.10;;;;;;5071276;28;20428;-73
2024/03/30 07:34:46;;;;;;;31.03;6.20;;;15.30;41.20;;;;;;5069673;28;20913;-73
2024/03/30 07:37:12;;;;;;;25.77;6.20;;;15.40;41.80;;;;;;5068955;28;20497;-73
2024/03/30 07:39:40;;;;;;;28.40;7.20;;;15.40;41.70;;;;;;5070718;28;20436;-73
2024/03/30 07:42:07;;;;;;;44.27;6.63;;;15.50;41.80;;;;;;5052748;28;20436;-73
2024/03/30 07:44:34;;;;;;;33.47;5.80;;;15.50;41.70;;;;;;5053010;28;20791;-73
2024/03/30 07:47:04;;;;;;;34.60;6.90;;;15.60;41.40;;;;;;5055970;28;20494;-73
2024/03/30 07:49:31;;;;;;;31.33;6.60;;;15.70;41.90;;;;;;5071395;28;20527;-75
2024/03/30 07:51:57;;;;;;;25.70;4.77;;;15.70;41.60;;;;;;5071785;28;20437;-75
2024/03/30 07:54:24;;;;;;;28.70;6.33;;;15.80;42.00;;;;;;5072846;28;20485;-74
2024/03/30 07:56:54;;;;;;;24.33;5.90;;;15.80;41.70;;;;;;5072179;28;20533;-75
2024/03/30 07:59:21;;;;;;;25.33;5.80;;;15.80;42.10;;;;;;5059442;28;20777;-75
2024/03/30 08:01:47;;;;;;;41.30;8.70;;;15.90;42.10;;;;;;5052268;28;20441;-74
2024/03/30 08:04:16;;;;;;;43.50;5.90;;;15.90;43.30;;;;;;5060040;28;20433;-75
2024/03/30 08:06:42;;;;;;;31.13;6.03;;;15.90;43.30;;;;;;5052039;28;20464;-74
2024/03/30 08:09:09;;;;;;;25.23;6.10;;;16.00;42.50;;;;;;5059859;28;20528;-73
2024/03/30 08:11:35;;;;;;;32.00;6.00;;;16.00;41.60;;;;;;5058148;28;20502;-73
2024/03/30 08:14:03;;;;;;;27.80;5.97;;;16.10;41.10;;;;;;5069562;28;20440;-73
2024/03/30 08:16:28;;;;;;;40.50;6.97;;;16.20;41.30;;;;;;5065681;28;20476;-73
2024/03/30 08:18:57;;;;;;;38.27;6.70;;;16.20;41.20;;;;;;5072262;28;20849;-73
2024/03/30 08:21:24;;;;;;;21.80;5.50;;;16.20;40.90;;;;;;5071938;28;20436;-73
2024/03/30 08:23:51;;;;;;;24.43;6.77;;;16.30;40.60;;;;;;5071014;28;20474;-73
2024/03/30 08:26:17;;;;;;;32.30;5.80;;;16.30;39.70;;;;;;5071872;28;20922;-73
2024/03/30 08:28:47;;;;;;;28.17;5.70;;;16.40;41.90;;;;;;5072679;28;20490;-73
2024/03/30 08:31:13;;;;;;;29.30;7.63;;;16.50;41.20;;;;;;5052058;28;20456;-73
2024/03/30 08:33:40;;;;;;;25.03;5.70;;;16.60;40.40;;;;;;5067524;28;20548;-73
2024/03/30 08:36:06;;;;;;;23.80;5.10;;;16.80;40.60;;;;;;5071861;28;20520;-73
2024/03/30 08:38:35;;;;;;;26.83;6.20;;;16.90;41.90;;;;;;5071900;28;20447;-75
2024/03/30 08:41:01;;;;;;;29.63;7.00;;;17.10;41.10;;;;;;5070836;28;20427;-75
2024/03/30 08:43:28;;;;;;;35.50;6.67;;;17.30;40.30;;;;;;5071422;28;20440;-75
2024/03/30 08:45:54;;;;;;;24.57;5.50;;;17.50;36.70;;;;;;5069701;28;20469;-73
2024/03/30 08:48:21;;;;;;;30.53;6.47;;;17.60;37.40;;;;;;5056156;28;20492;-73
2024/03/30 08:50:47;;;;;;;35.07;7.23;;;17.80;37.40;;;;;;5070976;28;20512;-74
2024/03/30 08:53:14;;;;;;;24.03;6.53;;;17.90;33.30;;;;;;5072189;28;20466;-75
2024/03/30 08:55:41;;;;;;;28.80;5.87;;;18.10;35.00;;;;;;5071592;28;20536;-76
2024/03/30 08:58:08;;;;;;;17.57;5.50;;;18.20;34.80;;;;;;5067625;28;20506;-76
2024/03/30 09:00:35;;;;;;;27.50;7.07;;;18.30;35.00;;;;;;5071589;28;20470;-76
2024/03/30 09:03:02;;;;;;;34.30;6.50;;;18.50;33.30;;;;;;5071618;28;20436;-76
2024/03/30 09:05:28;;;;;;;24.93;5.53;;;18.70;35.70;;;;;;5072253;28;20475;-74
2024/03/30 09:07:55;;;;;;;21.30;4.80;;;19.10;35.10;;;;;;5071344;28;20544;-76
2024/03/30 09:10:21;;;;;;;34.70;6.40;;;19.40;31.30;;;;;;5072151;28;20467;-76
2024/03/30 09:12:50;;;;;;;27.93;6.20;;;19.80;29.50;;;;;;5054770;28;20437;-75
2024/03/30 09:15:16;;;;;;;42.37;6.90;;;20.00;29.50;;;;;;5063556;28;20476;-76
2024/03/30 09:17:43;;;;;;;27.93;5.37;;;20.20;28.30;;;;;;5067105;28;20498;-74
2024/03/30 09:20:09;;;;;;;33.23;6.20;;;20.40;29.60;;;;;;5070374;28;20502;-74
2024/03/30 09:22:36;;;;;;;30.93;6.13;;;20.60;28.50;;;;;;5064446;28;20436;-73
2024/03/30 09:25:07;;;;;;;33.57;6.17;;;20.80;29.80;;;;;;5063906;28;20551;-73
2024/03/30 09:27:34;;;;;;;25.70;5.60;;;21.00;27.50;;;;;;5051621;28;20498;-73
2024/03/30 09:30:01;;;;;;;27.50;5.70;;;21.10;28.20;;;;;;5052715;28;20854;-73
2024/03/30 09:32:28;;;;;;;29.63;5.47;;;21.20;28.30;;;;;;5071391;28;20468;-73
2024/03/30 09:34:54;;;;;;;27.87;4.67;;;21.50;27.50;;;;;;5073925;28;20467;-74
2024/03/30 09:37:21;;;;;;;31.80;5.73;;;21.70;27.30;;;;;;5074689;28;20945;-74
2024/03/30 09:39:48;;;;;;;30.33;6.47;;;21.90;27.40;;;;;;5074985;28;20432;-73
2024/03/30 09:42:24;;;;;;;25.90;5.93;;;22.10;26.30;;;;;;5075316;28;20776;-75
2024/03/30 09:44:51;;;;;;;37.37;7.10;;;22.30;24.80;;;;;;5074739;28;20421;-74
2024/03/30 09:47:20;;;;;;;29.23;5.37;;;22.50;24.90;;;;;;5064161;28;20518;-71
2024/03/30 09:49:48;;;;;;;35.40;7.67;;;22.60;25.90;;;;;;5062750;28;20479;-72
2024/03/30 09:52:16;;;;;;;35.10;6.33;;;22.80;25.60;;;;;;5074756;28;20436;-72
2024/03/30 09:54:42;;;;;;;43.50;7.63;;;22.90;26.20;;;;;;5074529;28;20521;-72
2024/03/30 09:57:10;;;;;;;32.67;7.50;;;23.00;25.40;;;;;;5074303;28;20479;-75
2024/03/30 09:59:36;;;;;;;25.00;5.60;;;23.10;25.90;;;;;;5074213;28;20509;-74
2024/03/30 10:02:04;;;;;;;30.17;6.23;;;23.30;25.30;;;;;;5073849;28;20476;-75
2024/03/30 10:04:31;;;;;;;28.03;6.20;;;23.40;25.40;;;;;;5074014;28;20533;-75
2024/03/30 10:07:01;;;;;;;31.90;5.30;;;23.40;24.50;;;;;;5073982;28;20531;-74
2024/03/30 10:09:27;;;;;;;43.00;8.60;;;23.60;25.90;;;;;;5072061;28;20432;-74
2024/03/30 10:12:00;;;;;;;36.73;6.33;;;23.80;24.50;;;;;;5073284;28;20432;-75
2024/03/30 10:14:31;;;;;;;33.73;7.13;;;23.70;24.60;;;;;;5072494;28;20458;-71
2024/03/30 10:17:00;;;;;;;45.70;6.13;;;23.90;24.00;;;;;;5073884;28;20464;-73
2024/03/30 10:19:26;;;;;;;44.00;6.93;;;23.90;22.30;;;;;;5072956;28;20432;-73
2024/03/30 10:21:56;;;;;;;37.77;8.20;;;24.00;24.50;;;;;;5073020;28;20440;-70
2024/03/30 10:24:22;;;;;;;26.80;5.33;;;24.10;24.80;;;;;;5073667;28;20440;-74
2024/03/30 10:26:49;;;;;;;38.77;5.50;;;24.30;23.10;;;;;;5072438;28;20534;-70
2024/03/30 10:29:15;;;;;;;30.13;5.97;;;24.50;24.30;;;;;;5073714;28;20460;-70
2024/03/30 10:31:42;;;;;;;33.93;5.77;;;24.60;25.10;;;;;;5073656;28;20898;-71
2024/03/30 10:34:08;;;;;;;42.27;6.17;;;24.70;22.20;;;;;;5073296;28;20461;-74
2024/03/30 10:36:37;;;;;;;34.80;6.00;;;24.80;23.00;;;;;;5073503;28;20819;-72
2024/03/30 10:39:05;;;;;;;30.37;7.17;;;24.90;20.30;;;;;;5073122;28;20439;-74
2024/03/30 10:41:33;;;;;;;41.27;7.53;;;25.00;21.10;;;;;;5073464;28;20440;-73
2024/03/30 10:43:59;;;;;;;61.27;8.80;;;25.10;18.70;;;;;;5072151;28;20820;-74
2024/03/30 10:46:26;;;;;;;37.80;6.80;;;25.20;18.90;;;;;;5071805;28;20471;-74
2024/03/30 10:48:52;;;;;;;36.77;6.03;;;25.20;19.30;;;;;;5072796;28;21000;-74
2024/03/30 10:51:19;;;;;;;31.47;6.13;;;25.40;18.90;;;;;;5073308;28;20450;-74
2024/03/30 10:53:47;;;;;;;33.97;5.67;;;25.50;20.20;;;;;;5056949;28;20472;-74
2024/03/30 10:56:17;;;;;;;36.87;5.40;;;25.60;18.80;;;;;;5053373;28;21025;-74
2024/03/30 10:58:43;;;;;;;37.90;8.70;;;25.60;18.30;;;;;;5071393;28;20521;-74
2024/03/30 11:01:11;;;;;;;33.03;6.47;;;25.60;18.80;;;;;;5072654;28;20439;-74
2024/03/30 11:03:38;;;;;;;40.70;8.40;;;25.60;20.40;;;;;;5073528;28;20517;-74
2024/03/30 11:06:06;;;;;;;39.73;8.97;;;25.70;18.90;;;;;;5072839;28;20514;-74
2024/03/30 11:08:35;;;;;;;32.00;6.60;;;25.70;18.20;;;;;;5073251;28;20509;-74
2024/03/30 11:11:03;;;;;;;28.53;6.70;;;25.80;18.00;;;;;;5072891;28;20524;-74
2024/03/30 11:13:30;;;;;;;27.17;5.13;;;25.80;20.50;;;;;;5073236;28;20439;-75
2024/03/30 11:16:01;;;;;;;35.17;8.67;;;25.80;20.00;;;;;;5072385;28;20935;-74
2024/03/30 11:18:37;;;;;;;30.30;6.30;;;25.90;19.20;;;;;;5073630;28;20847;-72
2024/03/30 11:21:12;;;;;;;40.53;6.83;;;25.90;19.40;;;;;;5071942;28;20450;-73
2024/03/30 11:23:41;;;;;;;36.57;7.23;;;25.90;20.00;;;;;;5073252;28;20475;-72
2024/03/30 11:26:10;;;;;;;38.37;6.70;;;25.80;18.40;;;;;;5073124;28;20440;-72
2024/03/30 11:28:46;;;;;;;29.43;6.57;;;25.70;19.60;;;;;;5072899;28;20493;-73
2024/03/30 11:31:21;;;;;;;43.70;8.10;;;25.50;18.90;;;;;;5053212;28;20417;-72
2024/03/30 11:33:57;;;;;;;26.73;7.60;;;25.50;18.00;;;;;;5059009;28;20455;-72
2024/03/30 11:36:34;;;;;;;35.13;7.07;;;25.30;18.10;;;;;;5058982;28;20496;-73
2024/03/30 11:39:14;;;;;;;30.63;5.67;;;25.20;18.80;;;;;;5051829;28;20421;-72
2024/03/30 11:41:44;;;;;;;43.40;6.57;;;25.00;18.60;;;;;;5068070;28;20823;-72
2024/03/30 11:44:18;;;;;;;32.73;6.57;;;24.80;18.00;;;;;;5071795;28;20904;-72
2024/03/30 11:46:46;;;;;;;36.23;7.47;;;24.70;18.30;;;;;;5072943;28;20474;-72
2024/03/30 11:49:14;;;;;;;47.97;7.97;;;24.70;18.20;;;;;;5060420;28;20433;-72
2024/03/30 11:51:41;;;;;;;49.13;8.00;;;24.60;19.90;;;;;;5064637;28;20934;-72
2024/03/30 11:54:20;;;;;;;32.87;7.00;;;24.60;18.90;;;;;;5071896;28;20437;-72
2024/03/30 11:57:04;;;;;;;39.27;6.80;;;24.50;20.40;;;;;;5071865;28;20479;-72
2024/03/30 11:59:36;;;;;;;34.57;6.53;;;24.60;20.30;;;;;;5072389;28;20420;-72
2024/03/30 12:02:04;;;;;;;36.73;6.07;;;24.60;19.80;;;;;;5072250;28;20443;-72
2024/03/30 12:04:31;;;;;;;53.30;7.20;;;24.70;20.20;;;;;;5072762;28;20529;-73
2024/03/30 12:06:58;;;;;;;33.80;6.80;;;24.80;20.90;;;;;;5071570;28;20930;-72
2024/03/30 12:09:27;;;;;;;29.67;7.20;;;24.90;20.20;;;;;;5072323;28;20468;-73
2024/03/30 12:12:06;;;;;;;39.40;5.63;;;24.80;19.70;;;;;;5070065;28;20528;-72
2024/03/30 12:14:39;;;;;;;35.73;6.80;;;24.80;21.20;;;;;;5070822;28;20933;-72
2024/03/30 12:17:06;;;;;;;38.07;7.83;;;24.70;21.30;;;;;;5070892;28;20460;-72
2024/03/30 12:19:34;;;;;;;32.27;6.50;;;24.50;20.50;;;;;;5071902;28;20432;-73
2024/03/30 12:22:01;;;;;;;34.90;8.23;;;24.30;21.10;;;;;;5068925;28;20440;-72
2024/03/30 12:24:27;;;;;;;38.23;6.70;;;24.20;21.20;;;;;;5057393;28;20439;-72
2024/03/30 12:26:55;;;;;;;45.77;8.57;;;24.10;18.80;;;;;;5071210;28;20432;-72
2024/03/30 12:29:21;;;;;;;37.10;6.33;;;24.00;19.70;;;;;;5072020;28;20436;-72
2024/03/30 12:31:50;;;;;;;35.43;6.77;;;23.90;21.30;;;;;;5071284;28;20432;-71
2024/03/30 12:34:16;;;;;;;36.17;5.90;;;23.80;21.40;;;;;;5067685;28;20452;-72
2024/03/30 12:36:44;;;;;;;38.80;6.00;;;23.90;21.10;;;;;;5059136;28;20499;-72
2024/03/30 12:39:10;;;;;;;27.47;6.10;;;23.80;20.40;;;;;;5071750;28;20439;-72